Air Quality Table

TIMESTAMP NO2 SO2 O3 PM10 PM2.5 TEMP HUM AIRPRES WS WD NO
2022-08-15 20:00 6.06 µg/m3 -0.13 µg/m3 72.99 µg/m3 17.86 µg/m3 15.32 µg/m3 28.6 °C 90.69 % 1,003.62 mbar 3.32 m/s 161.12 Deg 0.79 µg/m3
2022-08-15 19:00 4.12 µg/m3 -0.13 µg/m3 76.48 µg/m3 30.1 µg/m3 13.25 µg/m3 28.73 °C 90.22 % 1,002.99 mbar 4.09 m/s 164.42 Deg 0.85 µg/m3
2022-08-15 18:00 2.04 µg/m3 -0.1 µg/m3 80.16 µg/m3 20.51 µg/m3 11.5 µg/m3 28.96 °C 90.07 % 1,002.98 mbar 4.73 m/s 166.75 Deg 0.83 µg/m3
2022-08-15 17:00 2.19 µg/m3 -0.1 µg/m3 83.51 µg/m3 20.16 µg/m3 10.77 µg/m3 29.28 °C 86.61 % 1,003.49 mbar 4.35 m/s 160.92 Deg 0.93 µg/m3
2022-08-15 16:00 3.82 µg/m3 -0.1 µg/m3 87.64 µg/m3 15.46 µg/m3 10.97 µg/m3 29.66 °C 83.36 % 1,003.64 mbar 4.75 m/s 162.28 Deg 1.22 µg/m3
2022-08-15 15:00 4.3 µg/m3 -0.06 µg/m3 87.56 µg/m3 13.41 µg/m3 10.24 µg/m3 29.66 °C 83.83 % 1,003.76 mbar 5 m/s 162.27 Deg 1.4 µg/m3
2022-08-15 14:00 2.76 µg/m3 -0.12 µg/m3 96.1 µg/m3 15.6 µg/m3 9.69 µg/m3 29.44 °C 84.31 % 1,004.04 mbar 4.91 m/s 163.22 Deg 1.11 µg/m3
2022-08-15 13:00 4.38 µg/m3 -0.09 µg/m3 89.69 µg/m3 17.65 µg/m3 13.67 µg/m3 29.58 °C 82.53 % 1,004.05 mbar 4.47 m/s 171.5 Deg 1.44 µg/m3
2022-08-15 12:00 3.4 µg/m3 -0.1 µg/m3 90.83 µg/m3 24.11 µg/m3 10.4 µg/m3 29.42 °C 83.49 % 1,004.22 mbar 4.09 m/s 151.22 Deg 1.27 µg/m3
2022-08-15 11:00 4.39 µg/m3 -0.03 µg/m3 90.79 µg/m3 36.93 µg/m3 14.19 µg/m3 28.9 °C 87.15 % 1,004.29 mbar 3.89 m/s 156.73 Deg 1.45 µg/m3
2022-08-15 10:00 4.68 µg/m3 0.02 µg/m3 88.13 µg/m3 32.84 µg/m3 19.37 µg/m3 28.43 °C 89.91 % 1,004.30 mbar 3.49 m/s 174.13 Deg 1.29 µg/m3
2022-08-15 09:00 7.57 µg/m3 -0.03 µg/m3 85.19 µg/m3 35.91 µg/m3 32.59 µg/m3 28.29 °C 87.2 % 1,003.97 mbar 3.39 m/s 164.38 Deg 1.93 µg/m3
2022-08-15 08:00 11.63 µg/m3 -0.06 µg/m3 81.88 µg/m3 36.58 µg/m3 8.85 µg/m3 28.13 °C 78.82 % 1,003.63 mbar 4.07 m/s 137.23 Deg 4.84 µg/m3
2022-08-15 07:00 6.58 µg/m3 -0.11 µg/m3 81.12 µg/m3 19.84 µg/m3 10.78 µg/m3 27.49 °C 81.53 % 1,003.53 mbar 2.93 m/s 126.73 Deg 1.29 µg/m3
2022-08-15 06:00 5.33 µg/m3 -0.08 µg/m3 80.34 µg/m3 15.32 µg/m3 11.39 µg/m3 26.83 °C 84.6 % 1,002.89 mbar 2.78 m/s 168.68 Deg 0.93 µg/m3
2022-08-15 05:00 4.8 µg/m3 -0.14 µg/m3 79.45 µg/m3 18.18 µg/m3 12.08 µg/m3 26.61 °C 91.16 % 1,002.85 mbar 1.62 m/s 237.42 Deg 0.79 µg/m3
2022-08-15 04:00 5.51 µg/m3 0.08 µg/m3 79.98 µg/m3 24.66 µg/m3 11.48 µg/m3 26.68 °C 95.77 % 1,002.85 mbar 2.15 m/s 22.63 Deg 0.82 µg/m3
2022-08-15 03:00 5.57 µg/m3 -0.14 µg/m3 73.4 µg/m3 23.86 µg/m3 16.93 µg/m3 26.9 °C 95.77 % 1,002.76 mbar 1.53 m/s 178.95 Deg 0.77 µg/m3
2022-08-15 02:00 8.41 µg/m3 -0.05 µg/m3 74.53 µg/m3 30.58 µg/m3 19.75 µg/m3 27.01 °C 94.45 % 1,002.99 mbar 0.92 m/s 335.27 Deg 0.79 µg/m3
2022-08-15 01:00 6.75 µg/m3 -0.09 µg/m3 79.76 µg/m3 35.72 µg/m3 14.81 µg/m3 27.16 °C 93.44 % 1,003.05 mbar 1.2 m/s 179.68 Deg 0.82 µg/m3
2022-08-15 00:00 4.76 µg/m3 -0.06 µg/m3 88.13 µg/m3 42.73 µg/m3 11.79 µg/m3 27.52 °C 90.61 % 1,003.25 mbar 1.54 m/s 104.05 Deg 0.8 µg/m3
2022-08-14 23:00 11.63 µg/m3 -0.08 µg/m3 84.83 µg/m3 47.46 µg/m3 10.03 µg/m3 27.97 °C 84.86 % 1,003.04 mbar 1.79 m/s 182.47 Deg 0.94 µg/m3
2022-08-14 22:00 22.93 µg/m3 -0.06 µg/m3 75.86 µg/m3 34.26 µg/m3 7.48 µg/m3 28.86 °C 73.2 % 1,003.05 mbar 2.05 m/s 10.18 Deg 1.22 µg/m3
2022-08-14 21:00 20.84 µg/m3 -0.05 µg/m3 74.73 µg/m3 12.24 µg/m3 5.78 µg/m3 29.15 °C 68.38 % 1,002.70 mbar 1.52 m/s 335.77 Deg 1.23 µg/m3
2022-08-14 20:00 16.04 µg/m3 -0.03 µg/m3 81.72 µg/m3 7.67 µg/m3 5.42 µg/m3 29.73 °C 59 % 1,002.11 mbar 1.72 m/s 306.7 Deg 1.13 µg/m3
2022-08-14 19:00 16.58 µg/m3 -0.05 µg/m3 80.11 µg/m3 7.23 µg/m3 6.05 µg/m3 31.24 °C 48.15 % 1,001.41 mbar 1.99 m/s 314.42 Deg 1.32 µg/m3
2022-08-14 18:00 13.78 µg/m3 -0.13 µg/m3 84.75 µg/m3 8.81 µg/m3 5.88 µg/m3 32.46 °C 45.89 % 1,001.09 mbar 2.05 m/s 316.72 Deg 1.49 µg/m3
2022-08-14 17:00 11.3 µg/m3 -0.11 µg/m3 84.85 µg/m3 12.75 µg/m3 7.72 µg/m3 32.61 °C 49.13 % 1,001.18 mbar 2.22 m/s 174.9 Deg 1.57 µg/m3
2022-08-14 16:00 12.4 µg/m3 -0.11 µg/m3 84.54 µg/m3 16.41 µg/m3 8.39 µg/m3 31.27 °C 65.49 % 1,001.58 mbar 2.48 m/s 97 Deg 2.52 µg/m3
2022-08-14 15:00 12.16 µg/m3 -0.1 µg/m3 91.37 µg/m3 17.78 µg/m3 9.48 µg/m3 29.96 °C 84.68 % 1,001.92 mbar 3.53 m/s 167.78 Deg 2.46 µg/m3
2022-08-14 14:00 4.62 µg/m3 -0.09 µg/m3 93.51 µg/m3 22.67 µg/m3 13.2 µg/m3 30.93 °C 77.85 % 1,002.24 mbar 3.07 m/s 118.07 Deg 1.3 µg/m3
2022-08-14 13:00 2.88 µg/m3 -0.12 µg/m3 94.99 µg/m3 34.56 µg/m3 8.81 µg/m3 30.24 °C 84.94 % 1,002.63 mbar 3.01 m/s 102.13 Deg 1.02 µg/m3
2022-08-14 12:00 6.9 µg/m3 -0.1 µg/m3 89.2 µg/m3 39.2 µg/m3 5.36 µg/m3 30.39 °C 82.82 % 1,002.89 mbar 3.23 m/s 216.83 Deg 1.6 µg/m3
2022-08-14 11:00 7.43 µg/m3 -0.06 µg/m3 91.15 µg/m3 19.57 µg/m3 6.95 µg/m3 31.4 °C 66.26 % 1,003.06 mbar 2.76 m/s 166.23 Deg 1.88 µg/m3
2022-08-14 10:00 9.25 µg/m3 -0.1 µg/m3 91.42 µg/m3 17.73 µg/m3 7.75 µg/m3 32.04 °C 51.7 % 1,003.12 mbar 2.42 m/s 324.32 Deg 1.76 µg/m3
2022-08-14 09:00 11.1 µg/m3 -0.08 µg/m3 83.75 µg/m3 25.58 µg/m3 12.62 µg/m3 31.24 °C 59.09 % 1,002.99 mbar 2.64 m/s 297.62 Deg 2.07 µg/m3
2022-08-14 08:00 11.78 µg/m3 -0.09 µg/m3 77.05 µg/m3 23.93 µg/m3 13.07 µg/m3 29.53 °C 74 % 1,002.64 mbar 2.02 m/s 301.48 Deg 2.04 µg/m3
2022-08-14 07:00 6.6 µg/m3 -0.07 µg/m3 77.48 µg/m3 15.64 µg/m3 11.85 µg/m3 27.68 °C 92.79 % 1,002.75 mbar 2.74 m/s 267.17 Deg 1.11 µg/m3
2022-08-14 06:00 10.46 µg/m3 -0.08 µg/m3 67.3 µg/m3 16.16 µg/m3 17.62 µg/m3 26.72 °C 95.45 % 1,003.06 mbar 1.91 m/s 258.93 Deg 0.97 µg/m3
2022-08-14 05:00 6.04 µg/m3 -0.09 µg/m3 73.43 µg/m3 17.29 µg/m3 11.21 µg/m3 26.9 °C 93.42 % 1,003.31 mbar 1.96 m/s 277.02 Deg 0.81 µg/m3
2022-08-14 04:00 4.12 µg/m3 0.04 µg/m3 75.65 µg/m3 22.42 µg/m3 9.04 µg/m3 27.02 °C 91.93 % 1,003.58 mbar 2.37 m/s 287.95 Deg 0.82 µg/m3
2022-08-14 03:00 4.24 µg/m3 -0.11 µg/m3 78.73 µg/m3 16.53 µg/m3 12.85 µg/m3 27.22 °C 89.49 % 1,003.96 mbar 2.02 m/s 284.4 Deg 0.77 µg/m3
2022-08-14 02:00 3.45 µg/m3 -0.14 µg/m3 78.61 µg/m3 20.97 µg/m3 14.43 µg/m3 27.36 °C 88.31 % 1,004.29 mbar 2.46 m/s 285.03 Deg 0.79 µg/m3
2022-08-14 01:00 6.88 µg/m3 -0.12 µg/m3 77.16 µg/m3 23.54 µg/m3 21.51 µg/m3 27.45 °C 87.21 % 1,004.76 mbar 2.53 m/s 282.52 Deg 0.91 µg/m3
2022-08-14 00:00 7.05 µg/m3 -0.1 µg/m3 76.16 µg/m3 32.3 µg/m3 15.76 µg/m3 27.52 °C 86.39 % 1,005.10 mbar 2.59 m/s 283.4 Deg 0.92 µg/m3
2022-08-13 23:00 9.7 µg/m3 -0.09 µg/m3 77.44 µg/m3 37.75 µg/m3 22.4 µg/m3 27.69 °C 82.43 % 1,004.98 mbar 2.83 m/s 286.67 Deg 1.14 µg/m3
2022-08-13 22:00 11.28 µg/m3 -0.1 µg/m3 78.62 µg/m3 32.59 µg/m3 10.58 µg/m3 27.87 °C 79.97 % 1,005.04 mbar 2.57 m/s 284.45 Deg 1.11 µg/m3
2022-08-13 21:00 7.15 µg/m3 -0.1 µg/m3 87.86 µg/m3 34.17 µg/m3 14.07 µg/m3 27.98 °C 77.86 % 1,004.91 mbar 3.2 m/s 273.33 Deg 0.99 µg/m3
2022-08-13 20:00 8.63 µg/m3 -0.1 µg/m3 84.71 µg/m3 36.98 µg/m3 5.89 µg/m3 28.01 °C 79.3 % 1,004.87 mbar 3.58 m/s 267.68 Deg 0.95 µg/m3
2022-08-13 19:00 7.35 µg/m3 -0.09 µg/m3 89.5 µg/m3 29.93 µg/m3 7.3 µg/m3 28.52 °C 72.3 % 1,004.47 mbar 3.4 m/s 271.58 Deg 1.01 µg/m3
2022-08-13 18:00 6.2 µg/m3 -0.11 µg/m3 92.94 µg/m3 19.58 µg/m3 5.39 µg/m3 29.37 °C 66.58 % 1,004.42 mbar 3.5 m/s 275.38 Deg 1.07 µg/m3
2022-08-13 17:00 6.27 µg/m3 -0.07 µg/m3 98.08 µg/m3 25.38 µg/m3 5.02 µg/m3 30.26 °C 58.97 % 1,004.67 mbar 3.69 m/s 288.47 Deg 1.27 µg/m3
2022-08-13 16:00 7.03 µg/m3 -0.09 µg/m3 96.57 µg/m3 14.29 µg/m3 5.69 µg/m3 30.72 °C 59.54 % 1,005.16 mbar 2.86 m/s 306.47 Deg 1.57 µg/m3
2022-08-13 15:00 6.89 µg/m3 -0.1 µg/m3 96.62 µg/m3 9.2 µg/m3 5.98 µg/m3 30.84 °C 56.48 % 1,005.70 mbar 3.56 m/s 303.32 Deg 1.43 µg/m3
2022-08-13 14:00 6.23 µg/m3 -0.08 µg/m3 100.27 µg/m3 9.84 µg/m3 7.37 µg/m3 30.53 °C 58.11 % 1,005.93 mbar 3.08 m/s 318.2 Deg 1.33 µg/m3
2022-08-13 13:00 8.86 µg/m3 -0.08 µg/m3 106.07 µg/m3 14.32 µg/m3 7.43 µg/m3 30.41 °C 58.9 % 1,006.13 mbar 2.56 m/s 318.28 Deg 1.75 µg/m3
2022-08-13 12:00 10.59 µg/m3 -0.09 µg/m3 101.17 µg/m3 19.23 µg/m3 9.21 µg/m3 29.19 °C 71.63 % 1,006.53 mbar 3.48 m/s 265.47 Deg 2.38 µg/m3
2022-08-13 11:00 12.75 µg/m3 -0.08 µg/m3 100.59 µg/m3 31.44 µg/m3 10.18 µg/m3 29.06 °C 72.92 % 1,006.59 mbar 3.27 m/s 97.28 Deg 2.78 µg/m3
2022-08-13 10:00 13.69 µg/m3 -0.08 µg/m3 100.08 µg/m3 31.4 µg/m3 12.99 µg/m3 29.1 °C 67.99 % 1,006.41 mbar 2.52 m/s 255.82 Deg 2.37 µg/m3
2022-08-13 09:00 15.3 µg/m3 -0.03 µg/m3 93.77 µg/m3 31.95 µg/m3 10.08 µg/m3 28.48 °C 65.81 % 1,006.22 mbar 2.07 m/s 330.62 Deg 2.5 µg/m3
2022-08-13 08:00 24.33 µg/m3 0 µg/m3 78.48 µg/m3 42.71 µg/m3 15.71 µg/m3 27.27 °C 75.27 % 1,006.06 mbar 1.65 m/s 316.06 Deg 3.56 µg/m3
2022-08-13 07:00 47.28 µg/m3 0 µg/m3 44.78 µg/m3 24.01 µg/m3 7 µg/m3 26.08 °C 81.42 % 1,005.65 mbar 1.06 m/s 287.96 Deg 6.02 µg/m3
2022-08-13 06:00 23.67 µg/m3 -0.07 µg/m3 68.05 µg/m3 14.84 µg/m3 8.86 µg/m3 25.59 °C 80.98 % 1,005.51 mbar 1.38 m/s 242.98 Deg 1.9 µg/m3
2022-08-13 05:00 13.13 µg/m3 -0.09 µg/m3 82.15 µg/m3 11.36 µg/m3 12.33 µg/m3 25.65 °C 82.16 % 1,005.32 mbar 1.98 m/s 5.3 Deg 1.36 µg/m3
2022-08-13 04:00 6.81 µg/m3 0.01 µg/m3 91.97 µg/m3 14.81 µg/m3 6.67 µg/m3 25.83 °C 80.73 % 1,005.42 mbar 1.69 m/s 175.1 Deg 0.75 µg/m3
2022-08-13 03:00 9.31 µg/m3 -0.12 µg/m3 89.37 µg/m3 23.76 µg/m3 8.48 µg/m3 25.95 °C 83.18 % 1,005.19 mbar 1.64 m/s 266.88 Deg 0.91 µg/m3
2022-08-13 02:00 6.16 µg/m3 -0.06 µg/m3 92.94 µg/m3 23.58 µg/m3 10.07 µg/m3 26.4 °C 87.07 % 1,005.32 mbar 1.79 m/s 105.23 Deg 0.79 µg/m3
2022-08-13 01:00 11.85 µg/m3 -0.07 µg/m3 86.5 µg/m3 23.84 µg/m3 13.69 µg/m3 27.18 °C 79.8 % 1,005.61 mbar 2.44 m/s 99.9 Deg 0.9 µg/m3
2022-08-13 00:00 18.76 µg/m3 -0.03 µg/m3 72.2 µg/m3 25.89 µg/m3 7.8 µg/m3 26.78 °C 79.78 % 1,005.65 mbar 1.62 m/s 314.61 Deg 1.75 µg/m3
2022-08-12 23:00 16.72 µg/m3 -0.05 µg/m3 78.35 µg/m3 26.29 µg/m3 10.6 µg/m3 26.83 °C 77.93 % 1,005.69 mbar 1.3 m/s 312.88 Deg 1.12 µg/m3
2022-08-12 22:00 15 µg/m3 -0.03 µg/m3 81.91 µg/m3 34.55 µg/m3 11.35 µg/m3 26.98 °C 80.08 % 1,005.65 mbar 1.64 m/s 312.93 Deg 1.12 µg/m3
2022-08-12 21:00 14.84 µg/m3 -0.07 µg/m3 84.45 µg/m3 34.71 µg/m3 13.6 µg/m3 26.98 °C 79.91 % 1,005.35 mbar 1.96 m/s 303.37 Deg 1.28 µg/m3
2022-08-12 20:00 19.52 µg/m3 -0.04 µg/m3 89.56 µg/m3 33.07 µg/m3 9.68 µg/m3 27.25 °C 75.25 % 1,004.89 mbar 2.33 m/s 306.75 Deg 1.57 µg/m3
2022-08-12 19:00 18.2 µg/m3 -0.05 µg/m3 95.27 µg/m3 23.15 µg/m3 9.3 µg/m3 28.14 °C 66.18 % 1,004.77 mbar 2.73 m/s 332.93 Deg 1.43 µg/m3
2022-08-12 18:00 14.8 µg/m3 -0.07 µg/m3 99.31 µg/m3 15 µg/m3 8.71 µg/m3 29.16 °C 58.52 % 1,004.65 mbar 2.98 m/s 319.42 Deg 1.73 µg/m3
2022-08-12 17:00 12.71 µg/m3 -0.04 µg/m3 101.96 µg/m3 17.53 µg/m3 5.87 µg/m3 29.55 °C 58.59 % 1,004.53 mbar 3 m/s 334.98 Deg 1.95 µg/m3
2022-08-12 16:00 10.15 µg/m3 -0.07 µg/m3 102.27 µg/m3 29.12 µg/m3 5.87 µg/m3 29.28 °C 62.2 % 1,004.64 mbar 3.35 m/s 5.35 Deg 1.97 µg/m3
2022-08-12 15:00 8.08 µg/m3 -0.09 µg/m3 106.34 µg/m3 19.77 µg/m3 5.89 µg/m3 29.24 °C 65.66 % 1,005.08 mbar 2.82 m/s 182.68 Deg 1.63 µg/m3
2022-08-12 14:00 10.15 µg/m3 -0.07 µg/m3 102.78 µg/m3 16.03 µg/m3 8.03 µg/m3 29.62 °C 61 % 1,005.13 mbar 2.29 m/s 258.53 Deg 1.72 µg/m3
2022-08-12 13:00 12.79 µg/m3 -0.08 µg/m3 94.67 µg/m3 24.41 µg/m3 11.14 µg/m3 28.98 °C 63.28 % 1,004.96 mbar 3.08 m/s 100.18 Deg 3.99 µg/m3
2022-08-12 12:00 8.42 µg/m3 -0.06 µg/m3 87.6 µg/m3 31.72 µg/m3 10.56 µg/m3 27.98 °C 73.85 % 1,005.16 mbar 2.58 m/s 32.07 Deg 1.9 µg/m3
2022-08-12 11:00 13.97 µg/m3 -0.05 µg/m3 82.4 µg/m3 38.46 µg/m3 14.92 µg/m3 27.68 °C 77.18 % 1,005.78 mbar 2.37 m/s 96.34 Deg 2.93 µg/m3
2022-08-12 10:00 13.67 µg/m3 -0.05 µg/m3 79.23 µg/m3 50.67 µg/m3 14.28 µg/m3 27.26 °C 77.74 % 1,005.73 mbar 1.98 m/s 89.62 Deg 2.47 µg/m3
2022-08-12 09:00 10.91 µg/m3 0.02 µg/m3 81.36 µg/m3 51.16 µg/m3 13.5 µg/m3 26.89 °C 74.7 % 1,005.50 mbar 2.54 m/s 10.27 Deg 2.48 µg/m3
2022-08-12 08:00 42.15 µg/m3 0.14 µg/m3 43.34 µg/m3 67.76 µg/m3 21.18 µg/m3 25.42 °C 84.16 % 1,005.37 mbar 2.76 m/s 256.27 Deg 11.31 µg/m3
2022-08-12 07:00 32.3 µg/m3 0.04 µg/m3 50.49 µg/m3 57.89 µg/m3 11.27 µg/m3 27.06 °C 79.11 % 1,004.99 mbar 0.97 m/s 96.65 Deg 5.55 µg/m3
2022-08-12 06:00 47.05 µg/m3 0.04 µg/m3 31.15 µg/m3 30.13 µg/m3 8.69 µg/m3 26.26 °C 81.98 % 1,004.64 mbar 0.88 m/s 43.77 Deg 5.41 µg/m3
2022-08-12 05:00 19 µg/m3 -0.05 µg/m3 58.56 µg/m3 12.78 µg/m3 5.74 µg/m3 26.18 °C 82.59 % 1,004.59 mbar 0.98 m/s 126.95 Deg 1.15 µg/m3
2022-08-12 04:00 7.55 µg/m3 0.03 µg/m3 70.54 µg/m3 12.09 µg/m3 6.57 µg/m3 26.2 °C 83.72 % 1,004.87 mbar 0.88 m/s 81.1 Deg 0.8 µg/m3
2022-08-12 03:00 7.88 µg/m3 -0.1 µg/m3 68.12 µg/m3 18.73 µg/m3 7.04 µg/m3 26.11 °C 84.46 % 1,005.05 mbar 1.11 m/s 188.52 Deg 0.85 µg/m3
2022-08-12 02:00 6.22 µg/m3 -0.1 µg/m3 71.91 µg/m3 20.39 µg/m3 6.99 µg/m3 26.34 °C 84.43 % 1,005.36 mbar 1.16 m/s 218.23 Deg 0.84 µg/m3
2022-08-12 01:00 9.33 µg/m3 -0.11 µg/m3 65.31 µg/m3 26.3 µg/m3 7.31 µg/m3 26.27 °C 84.81 % 1,005.64 mbar 1.53 m/s 159.63 Deg 0.97 µg/m3
2022-08-12 00:00 9.25 µg/m3 -0.1 µg/m3 65.64 µg/m3 23.87 µg/m3 7.59 µg/m3 26.46 °C 85.39 % 1,005.94 mbar 1.77 m/s 214.3 Deg 1.14 µg/m3
2022-08-11 23:00 10.36 µg/m3 -0.09 µg/m3 61.83 µg/m3 15.5 µg/m3 7.67 µg/m3 26.63 °C 83.1 % 1,006.19 mbar 1.67 m/s 268.38 Deg 1.18 µg/m3
2022-08-11 22:00 14.9 µg/m3 -0.08 µg/m3 52.85 µg/m3 14.74 µg/m3 7.16 µg/m3 26.57 °C 81.23 % 1,006.08 mbar 1.48 m/s 150.77 Deg 1.47 µg/m3
2022-08-11 21:00 12.24 µg/m3 -0.08 µg/m3 54.98 µg/m3 19.15 µg/m3 10.15 µg/m3 26.75 °C 82.16 % 1,005.90 mbar 1.16 m/s 229.42 Deg 1.91 µg/m3
2022-08-11 20:00 13.21 µg/m3 -0.06 µg/m3 55.19 µg/m3 15.59 µg/m3 11.4 µg/m3 26.98 °C 83.68 % 1,005.54 mbar 1.25 m/s 126.74 Deg 1.43 µg/m3
2022-08-11 19:00 9.63 µg/m3 -0.1 µg/m3 59.98 µg/m3 14.81 µg/m3 15.5 µg/m3 27.31 °C 81.21 % 1,005.21 mbar 1.71 m/s 197.6 Deg 1.4 µg/m3
2022-08-11 18:00 5.94 µg/m3 -0.07 µg/m3 65.67 µg/m3 16.01 µg/m3 10.51 µg/m3 27.46 °C 81.83 % 1,005.06 mbar 2.8 m/s 136.27 Deg 1.58 µg/m3
2022-08-11 17:00 4.96 µg/m3 -0.05 µg/m3 72.9 µg/m3 21.15 µg/m3 7.34 µg/m3 27.42 °C 83.6 % 1,005.26 mbar 3.29 m/s 122 Deg 1.46 µg/m3
2022-08-11 16:00 3.36 µg/m3 -0.09 µg/m3 77.64 µg/m3 29.95 µg/m3 11.8 µg/m3 27.67 °C 83.46 % 1,005.40 mbar 4.05 m/s 134.15 Deg 1.25 µg/m3
2022-08-11 15:00 2.13 µg/m3 -0.09 µg/m3 78.93 µg/m3 25.83 µg/m3 9.37 µg/m3 27.98 °C 80.62 % 1,005.72 mbar 4.23 m/s 133.5 Deg 1.12 µg/m3
2022-08-11 14:00 2.42 µg/m3 -0.06 µg/m3 75.05 µg/m3 32.79 µg/m3 9.77 µg/m3 26.95 °C 80.74 % 1,006.24 mbar 2.47 m/s 143.05 Deg 1.05 µg/m3
2022-08-11 13:00 4.09 µg/m3 -0.06 µg/m3 76.07 µg/m3 20.64 µg/m3 6.81 µg/m3 26.45 °C 84.77 % 1,006.53 mbar 4.01 m/s 142.5 Deg 1.12 µg/m3
2022-08-11 12:00 0.72 µg/m3 -0.03 µg/m3 79.77 µg/m3 20.52 µg/m3 7.8 µg/m3 28.62 °C 72.48 % 1,006.50 mbar 4.48 m/s 142.85 Deg 0.72 µg/m3
2022-08-11 11:00 1.16 µg/m3 0.01 µg/m3 87.59 µg/m3 31.7 µg/m3 11.71 µg/m3 29.06 °C 69.14 % 1,006.67 mbar 4.21 m/s 174.83 Deg 0.75 µg/m3
2022-08-11 10:00 8.45 µg/m3 0.16 µg/m3 81.91 µg/m3 33.95 µg/m3 10.17 µg/m3 28.33 °C 72.6 % 1,006.76 mbar 3.36 m/s 160.67 Deg 1.89 µg/m3
2022-08-11 09:00 9.17 µg/m3 0.3 µg/m3 75.32 µg/m3 37.23 µg/m3 13.98 µg/m3 27.49 °C 72.53 % 1,006.64 mbar 3.41 m/s 216.12 Deg 1.97 µg/m3
2022-08-11 08:00 18.68 µg/m3 0.18 µg/m3 62.49 µg/m3 38.84 µg/m3 16.16 µg/m3 27.06 °C 75.95 % 1,006.33 mbar 1.68 m/s 20.87 Deg 3.41 µg/m3
2022-08-11 07:00 56.55 µg/m3 0.14 µg/m3 21.11 µg/m3 35.69 µg/m3 6.5 µg/m3 27.14 °C 80.32 % 1,006.00 mbar 1.04 m/s 107.87 Deg 12.23 µg/m3
2022-08-11 06:00 51.04 µg/m3 0.09 µg/m3 20.12 µg/m3 18.9 µg/m3 7.18 µg/m3 26.72 °C 80.86 % 1,005.76 mbar 0.87 m/s 320.35 Deg 9.1 µg/m3
2022-08-11 05:00 17.22 µg/m3 -0.05 µg/m3 50.66 µg/m3 15.1 µg/m3 7.52 µg/m3 26.9 °C 76.11 % 1,005.51 mbar 0.76 m/s 270.28 Deg 1.04 µg/m3
2022-08-11 04:00 10.46 µg/m3 0.1 µg/m3 56.11 µg/m3 21.35 µg/m3 7.97 µg/m3 26.75 °C 77.57 % 1,005.45 mbar 1.03 m/s 227.85 Deg 0.81 µg/m3
2022-08-11 03:00 5.8 µg/m3 -0.08 µg/m3 61.96 µg/m3 18.23 µg/m3 11.76 µg/m3 26.83 °C 79.1 % 1,005.76 mbar 0.78 m/s 190.39 Deg 0.73 µg/m3
2022-08-11 02:00 5.98 µg/m3 -0.07 µg/m3 60.12 µg/m3 24.95 µg/m3 6.92 µg/m3 26.87 °C 80.2 % 1,006.04 mbar 0.66 m/s 185.44 Deg 0.76 µg/m3
2022-08-11 01:00 3.4 µg/m3 -0.09 µg/m3 62.8 µg/m3 18.56 µg/m3 7.33 µg/m3 27.06 °C 78.72 % 1,006.37 mbar 0.86 m/s 187.32 Deg 0.69 µg/m3
2022-08-11 00:00 1.87 µg/m3 -0.09 µg/m3 65.29 µg/m3 21.96 µg/m3 3.71 µg/m3 27.19 °C 80.39 % 1,006.70 mbar 0.97 m/s 151.48 Deg 0.68 µg/m3
2022-08-10 23:00 4.27 µg/m3 -0.04 µg/m3 64.82 µg/m3 24.16 µg/m3 4.55 µg/m3 27.4 °C 78.52 % 1,006.80 mbar 0.91 m/s 157.77 Deg 0.74 µg/m3
2022-08-10 22:00 7.8 µg/m3 -0.05 µg/m3 65.4 µg/m3 20.94 µg/m3 6.22 µg/m3 27.55 °C 73.5 % 1,006.72 mbar 0.78 m/s 203.23 Deg 0.78 µg/m3
2022-08-10 21:00 4.94 µg/m3 -0.06 µg/m3 72.01 µg/m3 27.04 µg/m3 6.65 µg/m3 27.9 °C 71.28 % 1,006.56 mbar 0.83 m/s 237.89 Deg 0.73 µg/m3
2022-08-10 20:00 3.83 µg/m3 -0.04 µg/m3 78.37 µg/m3 32.15 µg/m3 7.24 µg/m3 28.25 °C 72.37 % 1,006.40 mbar 0.89 m/s 222.88 Deg 0.69 µg/m3
2022-08-10 19:00 4.98 µg/m3 -0.04 µg/m3 74.3 µg/m3 17.62 µg/m3 6.9 µg/m3 29.04 °C 69.75 % 1,006.25 mbar 1.21 m/s 268.91 Deg 0.85 µg/m3
2022-08-10 18:00 3.37 µg/m3 -0.02 µg/m3 74.66 µg/m3 15.5 µg/m3 6.45 µg/m3 29.69 °C 65.69 % 1,006.01 mbar 1.75 m/s 226.88 Deg 0.87 µg/m3
2022-08-10 17:00 2.57 µg/m3 -0.1 µg/m3 77.92 µg/m3 10.27 µg/m3 6.19 µg/m3 29.56 °C 65.54 % 1,006.07 mbar 2.66 m/s 198.13 Deg 0.97 µg/m3
2022-08-10 16:00 2.33 µg/m3 -0.08 µg/m3 77.48 µg/m3 8.33 µg/m3 4.84 µg/m3 29.48 °C 66 % 1,006.14 mbar 3.8 m/s 183.1 Deg 1 µg/m3
2022-08-10 15:00 2.35 µg/m3 -0.1 µg/m3 74.38 µg/m3 10.64 µg/m3 4.52 µg/m3 29.28 °C 71.96 % 1,006.27 mbar 4.45 m/s 165.63 Deg 1.03 µg/m3
2022-08-10 14:00 1.15 µg/m3 -0.08 µg/m3 75.83 µg/m3 12.46 µg/m3 5.25 µg/m3 29.16 °C 75.65 % 1,006.90 mbar 3.91 m/s 156.65 Deg 0.82 µg/m3
2022-08-10 13:00 0.49 µg/m3 -0.07 µg/m3 84.89 µg/m3 11.45 µg/m3 5.92 µg/m3 28.99 °C 77.91 % 1,007.13 mbar 4.69 m/s 132.72 Deg 0.67 µg/m3
2022-08-10 12:00 1.72 µg/m3 -0.07 µg/m3 82.43 µg/m3 10.04 µg/m3 5.64 µg/m3 29.32 °C 74.39 % 1,007.31 mbar 3.51 m/s 141.93 Deg 0.87 µg/m3
2022-08-10 11:00 6.1 µg/m3 -0.06 µg/m3 82.88 µg/m3 11.88 µg/m3 7.75 µg/m3 29.11 °C 76.1 % 1,007.38 mbar 3.75 m/s 146.97 Deg 1.75 µg/m3
2022-08-10 10:00 3.01 µg/m3 -0.05 µg/m3 85.15 µg/m3 15.34 µg/m3 11.14 µg/m3 28.82 °C 75.58 % 1,007.30 mbar 3.5 m/s 147 Deg 1.12 µg/m3
2022-08-10 09:00 16.46 µg/m3 -0.05 µg/m3 74.23 µg/m3 23.64 µg/m3 15.29 µg/m3 28.74 °C 73.67 % 1,007.17 mbar 2.38 m/s 156.1 Deg 3.34 µg/m3
2022-08-10 08:00 12.35 µg/m3 -0.03 µg/m3 76 µg/m3 41.51 µg/m3 19.91 µg/m3 28.23 °C 79.17 % 1,007.01 mbar 1.54 m/s 191.5 Deg 2.41 µg/m3
2022-08-10 07:00 23.16 µg/m3 -0.04 µg/m3 61.87 µg/m3 31.13 µg/m3 11.14 µg/m3 26.98 °C 88.93 % 1,006.89 mbar 1.11 m/s 249.83 Deg 2.42 µg/m3
2022-08-10 06:00 16.37 µg/m3 -0.03 µg/m3 54.06 µg/m3 32.29 µg/m3 11.12 µg/m3 26.59 °C 90.73 % 1,006.68 mbar 1.21 m/s 230.35 Deg 1.44 µg/m3
2022-08-10 05:00 10.12 µg/m3 -0.06 µg/m3 50.4 µg/m3 32.38 µg/m3 13.81 µg/m3 26.73 °C 91.68 % 1,006.28 mbar 0.96 m/s 188.87 Deg 1.11 µg/m3
2022-08-10 04:00 9.77 µg/m3 0.11 µg/m3 47.96 µg/m3 37.09 µg/m3 21.4 µg/m3 26.82 °C 91.75 % 1,006.35 mbar 0.83 m/s 196.83 Deg 0.94 µg/m3
2022-08-10 03:00 10.79 µg/m3 -0.03 µg/m3 43.35 µg/m3 27.83 µg/m3 8.67 µg/m3 26.9 °C 91.65 % 1,006.45 mbar 0.78 m/s 171.12 Deg 1.2 µg/m3
2022-08-10 02:00 8.13 µg/m3 -0.05 µg/m3 45.6 µg/m3 23.45 µg/m3 11.09 µg/m3 27.04 °C 90.41 % 1,006.63 mbar 1.11 m/s 207.47 Deg 0.96 µg/m3
2022-08-10 01:00 7.49 µg/m3 -0.05 µg/m3 58.96 µg/m3 32.55 µg/m3 17.62 µg/m3 27.29 °C 89.62 % 1,006.90 mbar 0.72 m/s 209.2 Deg 0.91 µg/m3
2022-08-10 00:00 7.92 µg/m3 -0.03 µg/m3 64.91 µg/m3 35.61 µg/m3 16.67 µg/m3 27.63 °C 88.32 % 1,007.26 mbar 0.62 m/s 283.33 Deg 0.83 µg/m3
2022-08-09 23:00 8.41 µg/m3 -0.05 µg/m3 68.22 µg/m3 41.31 µg/m3 18.35 µg/m3 27.91 °C 86.68 % 1,007.33 mbar 1.05 m/s 185.77 Deg 1.17 µg/m3
2022-08-09 22:00 10.74 µg/m3 -0.07 µg/m3 64.62 µg/m3 32.66 µg/m3 18.24 µg/m3 28.1 °C 84.85 % 1,007.17 mbar 1.31 m/s 291 Deg 1.06 µg/m3
2022-08-09 21:00 26.14 µg/m3 -0.09 µg/m3 55.83 µg/m3 37.46 µg/m3 8.67 µg/m3 28.45 °C 83.67 % 1,007.08 mbar 1.39 m/s 238.93 Deg 1.74 µg/m3
2022-08-09 20:00 23.75 µg/m3 -0.05 µg/m3 59.81 µg/m3 33.22 µg/m3 11.05 µg/m3 28.84 °C 79.19 % 1,006.71 mbar 1.99 m/s 98.05 Deg 2.05 µg/m3
2022-08-09 19:00 10.17 µg/m3 -0.09 µg/m3 73.72 µg/m3 30.28 µg/m3 12.06 µg/m3 29.21 °C 75.83 % 1,006.42 mbar 2.4 m/s 9.4 Deg 1.36 µg/m3
2022-08-09 18:00 8.74 µg/m3 -0.07 µg/m3 76.75 µg/m3 37.87 µg/m3 10.36 µg/m3 29.64 °C 75.89 % 1,006.44 mbar 2.54 m/s 100.15 Deg 1.95 µg/m3
2022-08-09 17:00 5.49 µg/m3 -0.04 µg/m3 73.71 µg/m3 36.21 µg/m3 5.33 µg/m3 30.81 °C 70.48 % 1,006.13 mbar 1.72 m/s 286.39 Deg 1.44 µg/m3
2022-08-09 16:00 5.06 µg/m3 -0.06 µg/m3 72.41 µg/m3 34.24 µg/m3 6.8 µg/m3 31.07 °C 68.11 % 1,006.08 mbar 2.97 m/s 242.54 Deg 1.58 µg/m3
2022-08-09 15:00 3.42 µg/m3 -0.09 µg/m3 76.49 µg/m3 18.03 µg/m3 7.25 µg/m3 31.04 °C 64.86 % 1,006.34 mbar 3.68 m/s 231.13 Deg 1.2 µg/m3
2022-08-09 14:00 2.33 µg/m3 -0.07 µg/m3 95.73 µg/m3 12.62 µg/m3 9.46 µg/m3 31.01 °C 60.67 % 1,006.61 mbar 4.2 m/s 214.35 Deg 0.88 µg/m3
2022-08-09 13:00 2.72 µg/m3 -0.04 µg/m3 104.43 µg/m3 14.57 µg/m3 11.97 µg/m3 30.79 °C 60.21 % 1,007.06 mbar 4.09 m/s 193.87 Deg 0.84 µg/m3
2022-08-09 12:00 6.92 µg/m3 -0.05 µg/m3 112.22 µg/m3 23.17 µg/m3 16.58 µg/m3 30.24 °C 67.88 % 1,007.36 mbar 4.1 m/s 177.82 Deg 1.27 µg/m3
2022-08-09 11:00 14.07 µg/m3 -0.04 µg/m3 105.35 µg/m3 28.63 µg/m3 13.55 µg/m3 29.59 °C 73.53 % 1,007.49 mbar 3.4 m/s 158.31 Deg 2.3 µg/m3
2022-08-09 10:00 7.66 µg/m3 -0.07 µg/m3 102.61 µg/m3 33.82 µg/m3 13.54 µg/m3 29.52 °C 74.37 % 1,007.33 mbar 2.6 m/s 185.93 Deg 1.42 µg/m3
2022-08-09 09:00 4.12 µg/m3 -0.04 µg/m3 99.02 µg/m3 54.54 µg/m3 15.1 µg/m3 29.52 °C 72.45 % 1,007.10 mbar 1.99 m/s 180.38 Deg 1.04 µg/m3
2022-08-09 08:00 10.31 µg/m3 -0.02 µg/m3 92.21 µg/m3 88.71 µg/m3 21.3 µg/m3 28.81 °C 77.46 % 1,006.95 mbar 1.09 m/s 167.61 Deg 1.78 µg/m3
2022-08-09 07:00 32.13 µg/m3 0.09 µg/m3 61.93 µg/m3 100.53 µg/m3 23.88 µg/m3 27.94 °C 85.42 % 1,006.71 mbar 0.74 m/s 107.26 Deg 3.55 µg/m3
2022-08-09 06:00 55.09 µg/m3 0.17 µg/m3 27.37 µg/m3 47.72 µg/m3 9.88 µg/m3 27.01 °C 85.29 % 1,006.29 mbar 0.43 m/s 241.08 Deg 9.27 µg/m3
2022-08-09 05:00 24.33 µg/m3 0.01 µg/m3 61.88 µg/m3 22.02 µg/m3 16.13 µg/m3 27.03 °C 85.14 % 1,006.04 mbar 0.82 m/s 326.27 Deg 1.53 µg/m3
2022-08-09 04:00 8.2 µg/m3 0.06 µg/m3 73.14 µg/m3 23.12 µg/m3 10.13 µg/m3 26.99 °C 86.79 % 1,005.97 mbar 0.43 m/s 273.14 Deg 0.88 µg/m3
2022-08-09 03:00 12.31 µg/m3 -0.07 µg/m3 70.18 µg/m3 34.01 µg/m3 14.33 µg/m3 27.13 °C 86.59 % 1,005.99 mbar 0.66 m/s 305.65 Deg 1.1 µg/m3
2022-08-09 02:00 4.69 µg/m3 -0.07 µg/m3 80.48 µg/m3 32.74 µg/m3 13.18 µg/m3 27.34 °C 90.04 % 1,006.01 mbar 0.58 m/s 180.84 Deg 0.72 µg/m3
2022-08-09 01:00 4.68 µg/m3 -0.07 µg/m3 91.84 µg/m3 45.03 µg/m3 10.83 µg/m3 27.68 °C 88.71 % 1,006.26 mbar 1.11 m/s 97.17 Deg 0.75 µg/m3
2022-08-09 00:00 5.31 µg/m3 -0.05 µg/m3 97.32 µg/m3 29.67 µg/m3 17.33 µg/m3 27.82 °C 86.08 % 1,006.75 mbar 1.25 m/s 38.57 Deg 0.94 µg/m3
2022-08-08 23:00 7.98 µg/m3 -0.04 µg/m3 95.31 µg/m3 34.55 µg/m3 19.78 µg/m3 27.82 °C 86.54 % 1,006.89 mbar 1.43 m/s 39.9 Deg 0.78 µg/m3
2022-08-08 22:00 4.84 µg/m3 -0.02 µg/m3 97.85 µg/m3 44.36 µg/m3 14.37 µg/m3 27.93 °C 87.72 % 1,006.74 mbar 1.23 m/s 184.97 Deg 1.38 µg/m3

It is to be noted that the data is provisional and subject to quality assurance procedures. For validated data kindly refer your request to contact.air@era.org.mt